Time;durP1;ratioP1;P1;durP2;ratioP2;P2;SDS_P1;SDS_P2;PMS_P1;PMS_P2;Temp;Humidity;BMP_temperature;BMP_pressure;BME280_temperature;BME280_humidity;BME280_pressure;Samples;Min_cycle;Max_cycle;Signal;HPM_P1;HPM_P2
2021/11/09 00:00:21;;;;;;;17.80;12.03;;;;;;;15.61;100.00;100371.70;1679440;82;21172;-76
2021/11/09 00:02:49;;;;;;;18.73;10.73;;;;;;;14.75;100.00;100381.34;1680328;82;21655;-67
2021/11/09 00:05:19;;;;;;;16.17;9.60;;;;;;;14.52;100.00;100379.98;1650328;84;21139;-59
2021/11/09 00:07:52;;;;;;;18.17;10.03;;;;;;;14.60;100.00;100383.70;1651846;85;21185;-60
2021/11/09 00:10:18;;;;;;;19.77;12.28;;;;;;;14.85;100.00;100376.47;1624574;85;21253;-66
2021/11/09 00:12:50;;;;;;;16.87;12.13;;;;;;;14.79;100.00;100361.03;1648807;85;21941;-59
2021/11/09 00:15:18;;;;;;;;;;;;;;;14.78;100.00;100357.31;1630179;85;21364;-62
2021/11/09 00:17:45;;;;;;;17.40;10.87;;;;;;;14.07;100.00;100356.23;1662190;84;20138;-59
2021/11/09 00:20:15;;;;;;;16.00;10.40;;;;;;;14.11;100.00;100371.05;1679629;82;21249;-78
2021/11/09 00:22:42;;;;;;;15.07;10.57;;;;;;;14.41;100.00;100364.05;1681362;82;21515;-60
2021/11/09 00:25:09;;;;;;;19.37;12.37;;;;;;;14.63;100.00;100361.50;1680740;82;22257;-61
2021/11/09 00:27:36;;;;;;;18.03;12.17;;;;;;;14.46;100.00;100360.30;1650424;84;21365;-65
2021/11/09 00:30:05;;;;;;;18.47;12.43;;;;;;;14.62;100.00;100356.44;1651254;85;21356;-69
2021/11/09 00:32:32;;;;;;;15.07;12.03;;;;;;;14.41;100.00;100349.11;1654983;84;21928;-61
2021/11/09 00:35:00;;;;;;;15.30;11.97;;;;;;;14.61;100.00;100337.28;1651822;85;21529;-60
2021/11/09 00:37:27;;;;;;;16.63;13.27;;;;;;;14.75;100.00;100345.91;1673845;82;21911;-60
2021/11/09 00:39:54;;;;;;;18.80;11.77;;;;;;;14.76;100.00;100335.71;1652071;84;21029;-63
2021/11/09 00:42:21;;;;;;;27.20;13.33;;;;;;;14.65;100.00;100341.09;1651570;85;21144;-61
2021/11/09 00:44:48;;;;;;;19.37;11.27;;;;;;;15.24;100.00;100333.96;1646273;84;22112;-60
2021/11/09 00:47:15;;;;;;;21.20;11.60;;;;;;;15.16;100.00;100338.95;1649607;85;21362;-60
2021/11/09 00:49:41;;;;;;;19.67;12.10;;;;;;;15.19;100.00;100335.91;1651995;84;21863;-60
2021/11/09 00:52:08;;;;;;;17.00;10.67;;;;;;;15.38;100.00;100342.06;1649595;84;21289;-60
2021/11/09 00:54:35;;;;;;;21.47;11.53;;;;;;;15.30;100.00;100339.18;1648429;84;21258;-77
2021/11/09 00:57:03;;;;;;;19.77;11.30;;;;;;;15.29;100.00;100346.74;1679499;82;21320;-61
2021/11/09 00:59:30;;;;;;;22.37;12.73;;;;;;;15.34;100.00;100347.41;1680513;82;21642;-60
2021/11/09 01:01:57;;;;;;;24.90;12.30;;;;;;;15.33;100.00;100349.23;1651676;84;21434;-63
2021/11/09 01:04:24;;;;;;;23.30;11.93;;;;;;;15.17;100.00;100347.12;1679223;82;21284;-76
2021/11/09 01:06:51;;;;;;;21.70;11.63;;;;;;;15.36;100.00;100353.27;1680922;82;21407;-61
2021/11/09 01:09:21;;;;;;;20.37;11.20;;;;;;;15.44;100.00;100357.47;1680579;82;21194;-60
2021/11/09 01:11:50;;;;;;;18.50;11.70;;;;;;;15.59;100.00;100354.02;1681434;82;21356;-60
2021/11/09 01:14:19;;;;;;;16.33;11.80;;;;;;;15.65;100.00;100349.27;1679533;82;21243;-78
2021/11/09 01:16:46;;;;;;;19.73;12.00;;;;;;;15.78;100.00;100359.66;1680211;82;21314;-61
2021/11/09 01:19:14;;;;;;;18.67;11.10;;;;;;;15.77;100.00;100367.27;1649923;84;21374;-62
2021/11/09 01:21:42;;;;;;;17.87;11.20;;;;;;;15.08;100.00;100374.14;1652172;85;21172;-61
2021/11/09 01:24:11;;;;;;;18.97;12.30;;;;;;;15.45;100.00;100378.25;1649971;86;21780;-74
2021/11/09 01:26:39;;;;;;;18.17;12.60;;;;;;;15.71;100.00;100373.88;1647890;84;21600;-61
2021/11/09 01:29:06;;;;;;;17.80;10.40;;;;;;;15.81;100.00;100374.21;1649768;85;21847;-59
2021/11/09 01:31:34;;;;;;;14.07;10.87;;;;;;;15.71;100.00;100374.67;1648927;85;21226;-59
2021/11/09 01:34:01;;;;;;;15.77;10.87;;;;;;;15.69;100.00;100372.79;1651071;84;21153;-62
2021/11/09 01:36:28;;;;;;;19.00;11.70;;;;;;;15.72;100.00;100367.59;1650417;85;21296;-76
2021/11/09 01:38:55;;;;;;;20.50;11.93;;;;;;;15.44;100.00;100370.59;1651309;84;21678;-59
2021/11/09 01:41:22;;;;;;;18.00;11.67;;;;;;;15.62;100.00;100373.31;1648508;85;21228;-58
2021/11/09 01:43:49;;;;;;;18.03;11.43;;;;;;;15.58;100.00;100370.81;1650913;84;21391;-59
2021/11/09 01:46:16;;;;;;;16.80;10.90;;;;;;;15.56;100.00;100367.06;1647493;84;21201;-77
2021/11/09 01:48:43;;;;;;;12.10;10.20;;;;;;;15.27;100.00;100359.80;1650278;85;21125;-66
2021/11/09 01:51:14;;;;;;;14.97;10.43;;;;;;;15.41;100.00;100352.63;1645515;86;21737;-67
2021/11/09 01:53:42;;;;;;;16.87;12.88;;;;;;;15.20;100.00;100357.21;1651104;84;21096;-62
2021/11/09 01:56:11;;;;;;;12.90;9.97;;;;;;;15.23;100.00;100356.80;1642745;84;21004;-68
2021/11/09 01:58:38;;;;;;;15.30;10.87;;;;;;;15.21;100.00;100364.58;1645756;84;21348;-77
2021/11/09 02:01:15;;;;;;;13.97;10.67;;;;;;;15.22;100.00;100360.41;1649152;84;21360;-61
2021/11/09 02:03:45;;;;;;;14.30;10.90;;;;;;;14.94;100.00;100375.72;1682749;82;21410;-61
2021/11/09 02:06:13;;;;;;;15.10;10.33;;;;;;;14.93;100.00;100369.67;1668800;83;21282;-62
2021/11/09 02:08:41;;;;;;;14.93;10.90;;;;;;;14.97;100.00;100373.99;1712914;82;21306;-64
2021/11/09 02:11:09;;;;;;;17.63;11.53;;;;;;;14.98;100.00;100375.59;1669550;83;21507;-61
2021/11/09 02:13:37;;;;;;;18.97;11.80;;;;;;;14.91;100.00;100378.75;1646227;86;21154;-65
2021/11/09 02:16:05;;;;;;;16.17;11.30;;;;;;;14.88;100.00;100385.72;1647653;84;21313;-61
2021/11/09 02:18:31;;;;;;;15.93;11.20;;;;;;;14.29;100.00;100392.72;1674815;85;21294;-69
2021/11/09 02:21:06;;;;;;;13.47;10.43;;;;;;;14.35;100.00;100385.33;1716665;82;21253;-61
2021/11/09 02:23:33;;;;;;;16.00;11.33;;;;;;;14.76;100.00;100381.62;1679570;83;21312;-78
2021/11/09 02:26:01;;;;;;;14.17;10.17;;;;;;;14.07;100.00;100386.88;1713323;82;21333;-61
2021/11/09 02:28:28;;;;;;;15.17;10.67;;;;;;;13.83;100.00;100391.72;1718023;83;21238;-67
2021/11/09 02:30:55;;;;;;;15.27;9.83;;;;;;;13.95;100.00;100392.44;1679832;83;21299;-61
2021/11/09 02:33:21;;;;;;;14.63;10.60;;;;;;;13.88;100.00;100390.61;1717320;82;21261;-75
2021/11/09 02:35:49;;;;;;;12.77;10.23;;;;;;;14.21;100.00;100392.42;1720617;82;21131;-62
2021/11/09 02:38:16;;;;;;;14.83;9.93;;;;;;;13.31;100.00;100394.55;1715882;82;21175;-61
2021/11/09 02:40:44;;;;;;;14.47;10.37;;;;;;;13.78;100.00;100398.05;1717895;82;21238;-76
2021/11/09 02:43:12;;;;;;;14.17;10.10;;;;;;;13.90;100.00;100398.77;1677441;83;21831;-63
2021/11/09 02:48:39;;;;;;;15.20;10.70;;;;;;;14.20;100.00;100401.78;1719569;82;21390;-74
2021/11/09 02:51:17;;;;;;;14.93;10.37;;;;;;;14.23;100.00;100405.32;1719394;82;21204;-64
2021/11/09 02:53:44;;;;;;;16.10;11.90;;;;;;;14.20;100.00;100398.66;1719494;82;21273;-60
2021/11/09 02:58:49;;;;;;;13.93;11.00;;;;;;;14.04;100.00;100405.12;1680187;83;21863;-74
2021/11/09 03:01:18;;;;;;;12.67;9.77;;;;;;;14.05;100.00;100402.83;1717182;82;21362;-60
2021/11/09 03:03:49;;;;;;;14.70;10.93;;;;;;;14.22;100.00;100393.23;1716932;82;21185;-60
2021/11/09 03:08:58;;;;;;;14.03;10.07;;;;;;;14.04;100.00;100409.56;1666562;83;21923;-62
2021/11/09 03:11:20;;;;;;;15.33;11.23;;;;;;;14.24;100.00;100410.34;1662865;83;21225;-61
2021/11/09 03:13:52;;;;;;;15.17;10.57;;;;;;;14.26;100.00;100409.66;1666860;83;21298;-61
2021/11/09 03:16:16;;;;;;;16.73;11.40;;;;;;;14.03;100.00;100405.34;1665435;83;21654;-69
2021/11/09 03:18:50;;;;;;;13.90;9.87;;;;;;;13.91;100.00;100407.75;1666058;83;21396;-65
2021/11/09 03:45:40;;;;;;;14.60;10.20;;;;;;;13.99;100.00;100418.03;1665777;83;21447;-61
2021/11/09 03:48:09;;;;;;;12.10;10.10;;;;;;;14.01;100.00;100415.20;1666822;83;21350;-61
2021/11/09 03:50:37;;;;;;;13.63;9.80;;;;;;;14.16;100.00;100415.80;1666276;83;21658;-75
2021/11/09 03:53:12;;;;;;;14.67;9.17;;;;;;;14.38;100.00;100413.77;1666706;83;22753;-61
2021/11/09 03:56:04;;;;;;;;;;;;;;;14.33;100.00;100409.14;1670626;83;21376;-62
2021/11/09 04:00:58;;;;;;;13.60;10.23;;;;;;;13.75;100.00;100406.81;1679939;80;21308;-62
2021/11/09 04:05:55;;;;;;;13.47;10.80;;;;;;;13.67;100.00;100410.42;1706147;82;21797;-76
2021/11/09 04:08:38;;;;;;;15.80;9.80;;;;;;;13.61;100.00;100415.17;1680463;83;21865;-74
2021/11/09 04:11:18;;;;;;;14.20;9.50;;;;;;;13.41;100.00;100419.54;1696872;83;21249;-64
2021/11/09 04:21:41;;;;;;;15.53;9.80;;;;;;;14.18;100.00;100419.55;1742659;80;21054;-64
2021/11/09 04:24:27;;;;;;;14.65;10.18;;;;;;;13.75;100.00;100411.58;1737421;80;21249;-61
2021/11/09 04:29:45;;;;;;;13.93;10.27;;;;;;;13.85;100.00;100410.66;1674245;85;21035;-61
2021/11/09 04:53:52;;;;;;;14.57;10.33;;;;;;;14.32;100.00;100439.01;1742360;80;21062;-61
2021/11/09 05:09:16;;;;;;;20.23;12.47;;;;;;;14.86;100.00;100450.75;1720453;81;22395;-60
2021/11/09 05:11:41;;;;;;;17.02;11.48;;;;;;;14.51;100.00;100453.66;1721092;81;21216;-61
2021/11/09 05:14:09;;;;;;;17.77;11.63;;;;;;;14.67;100.00;100451.10;1720538;81;21113;-75
2021/11/09 05:16:36;;;;;;;14.68;9.50;;;;;;;14.54;100.00;100465.02;1721281;81;22118;-68
2021/11/09 05:19:04;;;;;;;15.10;10.10;;;;;;;14.41;100.00;100465.02;1720759;81;21041;-61
2021/11/09 05:21:32;;;;;;;15.10;10.57;;;;;;;14.28;100.00;100465.81;1721112;81;21238;-58
2021/11/09 05:24:00;;;;;;;14.43;10.30;;;;;;;14.62;100.00;100466.12;1720749;83;21373;-64
2021/11/09 05:26:27;;;;;;;16.03;11.27;;;;;;;15.11;100.00;100464.79;1721079;81;21310;-75
2021/11/09 05:28:54;;;;;;;13.80;11.00;;;;;;;15.14;100.00;100471.45;1728134;81;21252;-59
2021/11/09 05:31:21;;;;;;;15.43;10.97;;;;;;;15.29;100.00;100478.05;1717169;81;21331;-62
2021/11/09 05:33:52;;;;;;;18.93;11.60;;;;;;;15.27;100.00;100480.61;1718338;81;21430;-61
2021/11/09 05:36:17;;;;;;;17.37;11.20;;;;;;;15.41;100.00;100478.72;1719425;81;21752;-62
2021/11/09 05:38:48;;;;;;;17.40;11.87;;;;;;;15.26;100.00;100487.66;1719769;81;22639;-72
2021/11/09 05:41:12;;;;;;;14.90;10.73;;;;;;;14.96;100.00;100486.03;1720896;81;21218;-61
2021/11/09 05:43:39;;;;;;;15.73;10.67;;;;;;;15.09;100.00;100480.77;1721053;81;21133;-61
2021/11/09 05:46:09;;;;;;;13.70;10.40;;;;;;;15.57;100.00;100476.94;1720642;81;21721;-78
2021/11/09 05:48:37;;;;;;;15.03;11.27;;;;;;;15.70;100.00;100483.45;1721021;81;21307;-61
2021/11/09 05:51:05;;;;;;;17.83;11.33;;;;;;;15.62;100.00;100478.42;1719613;81;21848;-63
2021/11/09 05:53:33;;;;;;;15.87;11.30;;;;;;;15.51;100.00;100485.66;1721743;81;21261;-65
2021/11/09 05:56:02;;;;;;;16.30;11.13;;;;;;;16.21;100.00;100483.84;1720315;81;21371;-63
2021/11/09 05:58:30;;;;;;;14.53;10.30;;;;;;;16.18;100.00;100486.89;1719431;81;21854;-61
2021/11/09 06:00:56;;;;;;;16.53;12.20;;;;;;;16.36;99.85;100493.21;1718962;81;21765;-63
2021/11/09 06:03:24;;;;;;;16.20;12.17;;;;;;;16.64;96.54;100492.78;1722242;81;21219;-60
2021/11/09 06:05:52;;;;;;;17.37;11.27;;;;;;;16.67;96.63;100483.94;1720839;81;22782;-60
2021/11/09 06:08:20;;;;;;;15.27;12.03;;;;;;;16.37;100.00;100484.32;1720655;81;21055;-60
2021/11/09 06:10:47;;;;;;;20.20;13.40;;;;;;;14.52;100.00;100502.47;1721284;81;21764;-61
2021/11/09 06:13:16;;;;;;;20.83;12.93;;;;;;;15.23;100.00;100497.29;1719523;81;21274;-60
2021/11/09 06:15:42;;;;;;;20.43;12.23;;;;;;;15.60;100.00;100499.34;1721543;81;21217;-59
2021/11/09 06:18:09;;;;;;;19.00;11.63;;;;;;;15.91;100.00;100493.33;1720769;80;21227;-79
2021/11/09 06:20:36;;;;;;;24.40;12.77;;;;;;;15.82;100.00;100508.55;1721281;80;21405;-75
2021/11/09 06:23:03;;;;;;;17.70;12.93;;;;;;;15.98;100.00;100511.19;1720751;81;21222;-60
2021/11/09 06:25:31;;;;;;;18.67;12.30;;;;;;;15.69;100.00;100513.39;1721480;81;21778;-60
2021/11/09 06:27:58;;;;;;;16.50;11.70;;;;;;;15.71;100.00;100512.66;1721259;80;21178;-60
2021/11/09 06:30:24;;;;;;;14.57;10.13;;;;;;;15.26;100.00;100517.06;1726312;80;21785;-60
2021/11/09 06:32:51;;;;;;;14.27;10.53;;;;;;;14.91;100.00;100516.04;1720695;81;21231;-60
2021/11/09 06:35:19;;;;;;;14.83;11.07;;;;;;;14.54;100.00;100514.86;1721473;81;21243;-68
2021/11/09 06:37:45;;;;;;;15.00;10.70;;;;;;;15.23;100.00;100510.42;1721298;81;21370;-60
2021/11/09 06:40:13;;;;;;;15.10;11.07;;;;;;;15.52;100.00;100501.70;1720808;81;21355;-75
2021/11/09 06:42:41;;;;;;;13.57;10.50;;;;;;;15.52;100.00;100501.70;1720711;81;21374;-75
2021/11/09 06:45:09;;;;;;;13.20;10.37;;;;;;;15.93;100.00;100504.45;1719975;81;22714;-59
2021/11/09 06:47:36;;;;;;;14.90;10.57;;;;;;;16.04;100.00;100502.45;1719965;80;21452;-60
2021/11/09 06:50:04;;;;;;;17.03;10.17;;;;;;;16.14;100.00;100505.44;1724585;80;21780;-76
2021/11/09 06:52:33;;;;;;;14.23;9.33;;;;;;;15.36;100.00;100511.37;1718215;81;21335;-64
2021/11/09 06:55:02;;;;;;;11.13;9.57;;;;;;;15.92;100.00;100523.88;1720532;81;22388;-60
2021/11/09 06:57:29;;;;;;;13.13;9.90;;;;;;;15.92;100.00;100523.88;1718252;81;21424;-61
2021/11/09 06:59:57;;;;;;;13.73;10.03;;;;;;;15.89;100.00;100526.92;1719883;81;21467;-64
2021/11/09 07:02:23;;;;;;;13.93;10.70;;;;;;;15.89;100.00;100526.92;1719115;80;21400;-76
2021/11/09 07:04:50;;;;;;;12.60;9.50;;;;;;;16.20;100.00;100522.17;1717923;81;21527;-61
2021/11/09 07:07:18;;;;;;;12.83;9.37;;;;;;;16.20;100.00;100522.17;1716653;81;22111;-59
2021/11/09 07:09:45;;;;;;;15.80;10.80;;;;;;;15.37;100.00;100522.98;1723492;80;21551;-61
2021/11/09 07:12:12;;;;;;;12.70;9.87;;;;;;;15.55;100.00;100531.51;1719240;80;22004;-80
2021/11/09 07:14:39;;;;;;;18.53;10.33;;;;;;;16.02;100.00;100536.87;1719160;81;21552;-60
2021/11/09 07:17:07;;;;;;;12.73;9.80;;;;;;;16.02;100.00;100536.87;1718021;81;21691;-60
2021/11/09 07:19:35;;;;;;;13.90;10.03;;;;;;;16.29;100.00;100530.11;1716595;81;21741;-59
2021/11/09 07:22:03;;;;;;;12.80;9.67;;;;;;;16.76;100.00;100527.41;1717565;81;21680;-60
2021/11/09 07:24:31;;;;;;;12.07;9.23;;;;;;;17.15;100.00;100524.58;1720905;81;21619;-72
2021/11/09 07:26:58;;;;;;;12.03;9.53;;;;;;;17.64;100.00;100533.33;1726471;80;22360;-59
2021/11/09 07:29:25;;;;;;;12.63;9.67;;;;;;;17.64;100.00;100533.33;1721282;81;21441;-59
2021/11/09 07:31:55;;;;;;;11.93;9.20;;;;;;;17.84;98.79;100528.64;1719928;81;22119;-59
2021/11/09 07:34:21;;;;;;;13.17;9.33;;;;;;;17.84;98.79;100528.64;1721177;81;20986;-60
2021/11/09 07:36:48;;;;;;;11.47;9.40;;;;;;;17.69;99.08;100530.33;1720703;81;20993;-58
2021/11/09 07:39:15;;;;;;;12.67;9.10;;;;;;;17.55;100.00;100526.77;1720204;81;21058;-61
2021/11/09 07:41:42;;;;;;;14.40;9.30;;;;;;;18.09;95.80;100525.83;1716492;81;20998;-58
2021/11/09 07:44:10;;;;;;;12.17;9.50;;;;;;;17.78;98.74;100527.41;1718051;81;21116;-65
2021/11/09 07:46:37;;;;;;;11.80;9.07;;;;;;;18.14;93.57;100524.63;1716331;81;20958;-61
2021/11/09 07:49:06;;;;;;;13.40;10.40;;;;;;;18.05;92.83;100524.68;1691882;83;21522;-59
2021/11/09 07:51:35;;;;;;;12.43;9.47;;;;;;;18.27;87.89;100517.05;1691316;82;21592;-59
2021/11/09 07:54:03;;;;;;;12.23;9.23;;;;;;;17.92;93.37;100510.38;1691985;82;21062;-69
2021/11/09 07:56:36;;;;;;;11.37;8.10;;;;;;;17.56;98.66;100505.96;1693910;82;21200;-61
2021/11/09 08:01:33;;;;;;;9.50;7.87;;;;;;;18.17;98.97;100516.27;1690019;82;21116;-59
2021/11/09 08:06:28;;;;;;;11.17;7.33;;;;;;;19.03;88.34;100520.64;1679470;85;22405;-60
2021/11/09 08:11:21;;;;;;;10.83;7.30;;;;;;;19.76;71.84;100528.95;1679911;82;21086;-60
2021/11/09 08:13:48;;;;;;;9.87;7.37;;;;;;;19.47;70.36;100528.91;1682092;82;21097;-79
2021/11/09 08:16:17;;;;;;;11.27;7.30;;;;;;;19.73;68.39;100517.52;1677027;82;21019;-59
2021/11/09 08:18:45;;;;;;;11.30;8.47;;;;;;;19.44;66.25;100526.76;1652373;84;21564;-73
2021/11/09 08:21:13;;;;;;;10.57;7.30;;;;;;;19.51;66.04;100533.20;1648738;85;21162;-60
2021/11/09 08:23:39;;;;;;;11.13;8.67;;;;;;;19.56;65.71;100532.80;1679591;82;21531;-61
2021/11/09 08:26:06;;;;;;;10.03;7.60;;;;;;;19.57;64.82;100530.95;1677655;82;21111;-78
2021/11/09 08:28:34;;;;;;;9.90;6.97;;;;;;;19.68;63.59;100533.58;1679022;82;21015;-60
2021/11/09 08:31:10;;;;;;;9.70;7.70;;;;;;;19.91;61.68;100529.23;1679140;82;21023;-78
2021/11/09 08:33:34;;;;;;;8.97;6.80;;;;;;;19.51;63.07;100538.00;1676733;82;22367;-59
2021/11/09 08:36:04;;;;;;;7.47;5.10;;;;;;;19.61;62.74;100551.40;1678849;82;21047;-76
2021/11/09 08:38:32;;;;;;;7.43;5.20;;;;;;;18.96;64.32;100547.69;1678480;82;21015;-60
2021/11/09 08:41:00;;;;;;;8.23;5.30;;;;;;;18.82;62.22;100538.39;1678796;82;21042;-61
2021/11/09 08:43:32;;;;;;;9.17;5.27;;;;;;;19.15;59.78;100539.91;1678358;85;21042;-61
2021/11/09 08:48:43;;;;;;;6.10;3.80;;;;;;;19.10;60.68;100542.45;1677388;82;21795;-61
2021/11/09 08:51:09;;;;;;;7.08;3.85;;;;;;;19.39;60.86;100539.33;1676737;82;21071;-61
2021/11/09 08:53:43;;;;;;;7.27;4.53;;;;;;;19.29;61.60;100535.70;1676970;82;21030;-79
2021/11/09 09:01:03;;;;;;;6.60;3.90;;;;;;;20.14;57.53;100536.23;1677068;83;21160;-61
2021/11/09 09:01:21;;;;;;;6.27;4.20;;;;;;;20.28;55.60;100528.27;1676704;83;20983;-61
2021/11/09 09:06:19;;;;;;;6.80;4.17;;;;;;;20.70;52.33;100522.58;1675952;82;20968;-60
2021/11/09 09:08:46;;;;;;;7.60;4.93;;;;;;;20.63;51.37;100523.27;1678258;82;20972;-62
2021/11/09 09:11:13;;;;;;;7.73;4.07;;;;;;;20.38;51.14;100526.29;1676146;82;21159;-65
2021/11/09 09:13:41;;;;;;;8.17;4.27;;;;;;;20.41;50.96;100509.92;1675404;82;21071;-60
2021/11/09 09:16:08;;;;;;;7.43;4.10;;;;;;;20.35;50.59;100505.62;1675431;82;21024;-61
2021/11/09 09:18:35;;;;;;;5.30;3.97;;;;;;;20.20;51.14;100511.99;1677067;82;21501;-76
2021/11/09 09:21:29;;;;;;;5.87;3.97;;;;;;;20.14;50.56;100506.59;1676703;82;21114;-62
2021/11/09 09:23:34;;;;;;;7.53;3.87;;;;;;;19.66;51.70;100523.78;1676774;82;21136;-64
2021/11/09 09:28:55;;;;;;;6.87;3.93;;;;;;;19.65;51.51;100525.31;1679264;82;21079;-65
2021/11/09 09:53:10;;;;;;;4.30;2.93;;;;;;;19.39;50.53;100531.92;1678589;82;21639;-72
2021/11/09 09:55:39;;;;;;;5.23;3.00;;;;;;;19.44;50.50;100518.83;1677285;82;21521;-72
2021/11/09 09:58:10;;;;;;;5.40;2.77;;;;;;;19.34;50.92;100518.62;1676295;82;20976;-64
2021/11/09 10:00:38;;;;;;;4.87;2.40;;;;;;;19.35;50.03;100522.86;1675095;82;21670;-64
2021/11/09 10:03:06;;;;;;;4.40;2.13;;;;;;;19.63;48.58;100518.16;1680567;82;21371;-71
2021/11/09 10:05:38;;;;;;;4.20;2.50;;;;;;;19.32;48.81;100505.65;1677903;82;22175;-64
2021/11/09 10:08:18;;;;;;;5.00;2.33;;;;;;;19.13;48.83;100502.36;1649288;83;21066;-65
2021/11/09 10:10:47;;;;;;;4.17;1.87;;;;;;;18.95;48.25;100503.83;1676387;82;21073;-74
2021/11/09 10:13:20;;;;;;;4.50;1.77;;;;;;;18.66;47.27;100499.73;1675420;82;21125;-64
2021/11/09 10:15:54;;;;;;;3.30;1.50;;;;;;;18.68;45.97;100499.00;1681279;82;20932;-69
2021/11/09 10:18:24;;;;;;;4.53;1.83;;;;;;;18.79;44.63;100507.16;1675736;82;20908;-65
2021/11/09 10:20:54;;;;;;;3.70;1.70;;;;;;;18.46;44.16;100504.56;1672391;82;21074;-71
2021/11/09 10:23:23;;;;;;;3.10;1.80;;;;;;;18.38;44.66;100504.91;1673102;82;21177;-66
2021/11/09 10:25:54;;;;;;;4.20;1.67;;;;;;;18.37;44.90;100515.98;1681370;82;21047;-65
2021/11/09 10:28:22;;;;;;;3.80;1.90;;;;;;;19.13;44.30;100511.61;1646777;85;21794;-66
2021/11/09 10:30:54;;;;;;;4.20;2.20;;;;;;;19.13;44.30;100511.61;1655463;84;21496;-66
2021/11/09 10:33:24;;;;;;;3.70;1.93;;;;;;;18.87;45.15;100518.72;1673964;82;21760;-66
2021/11/09 10:35:53;;;;;;;4.20;1.90;;;;;;;18.87;45.15;100518.72;1677141;82;21067;-68
2021/11/09 10:38:32;;;;;;;3.60;1.70;;;;;;;19.19;44.97;100523.08;1677124;82;21783;-73
2021/11/09 10:41:00;;;;;;;3.77;1.87;;;;;;;19.18;44.46;100520.95;1681898;82;21813;-65
2021/11/09 10:43:28;;;;;;;3.03;1.60;;;;;;;19.15;44.46;100517.97;1676699;82;20980;-67
2021/11/09 10:45:57;;;;;;;3.47;1.70;;;;;;;19.01;43.79;100517.41;1678776;82;21679;-64
2021/11/09 10:48:24;;;;;;;2.97;1.30;;;;;;;18.45;43.97;100511.68;1649371;84;21032;-71
2021/11/09 10:50:58;;;;;;;3.37;1.37;;;;;;;18.71;42.75;100522.34;1673682;82;21721;-66
2021/11/09 10:53:35;;;;;;;2.70;1.03;;;;;;;18.38;41.72;100524.17;1647807;84;22925;-64
2021/11/09 10:56:31;;;;;;;2.47;0.90;;;;;;;18.60;40.05;100529.71;1677078;82;21659;-70
2021/11/09 10:59:14;;;;;;;2.23;0.90;;;;;;;17.97;40.64;100530.28;1676910;82;21523;-64
2021/11/09 11:04:40;;;;;;;1.63;0.53;;;;;;;17.13;41.16;100534.55;1698455;81;21689;-65
2021/11/09 11:07:10;;;;;;;2.13;0.70;;;;;;;16.97;40.76;100524.05;1683684;82;21626;-73
2021/11/09 11:09:38;;;;;;;2.93;0.80;;;;;;;16.62;40.44;100530.34;1690258;82;22900;-66
2021/11/09 11:12:14;;;;;;;2.23;0.90;;;;;;;16.81;39.55;100524.63;1685693;82;22187;-66
2021/11/09 11:14:45;;;;;;;2.27;0.73;;;;;;;16.86;39.48;100511.13;1698238;82;21711;-65
2021/11/09 11:17:14;;;;;;;1.50;0.60;;;;;;;17.22;38.88;100513.47;1696270;83;21772;-73
2021/11/09 11:19:52;;;;;;;3.23;0.97;;;;;;;17.42;37.84;100509.27;1687644;83;23258;-67
2021/11/09 11:22:25;;;;;;;3.27;0.70;;;;;;;17.59;37.32;100509.48;1701076;82;23126;-64
2021/11/09 11:24:52;;;;;;;2.63;1.00;;;;;;;17.82;37.06;100503.52;1691870;83;21813;-66
2021/11/09 11:27:20;;;;;;;2.27;1.17;;;;;;;18.15;36.20;100506.47;1689046;83;22459;-72
2021/11/09 11:29:47;;;;;;;2.40;0.60;;;;;;;18.30;35.02;100505.25;1693441;83;22469;-63
2021/11/09 11:32:17;;;;;;;1.93;0.70;;;;;;;19.03;33.32;100511.39;1693774;83;21653;-64
2021/11/09 11:34:44;;;;;;;1.23;0.50;;;;;;;19.35;32.77;100517.05;1693708;83;22310;-71
2021/11/09 11:37:18;;;;;;;1.60;0.60;;;;;;;19.44;33.09;100526.76;1693200;83;21717;-73
2021/11/09 11:39:46;;;;;;;2.10;0.90;;;;;;;19.72;32.20;100532.59;1693300;83;21741;-63
2021/11/09 11:42:17;;;;;;;2.97;1.00;;;;;;;19.78;31.54;100540.91;1681695;83;21105;-66
2021/11/09 11:44:47;;;;;;;1.87;0.40;;;;;;;19.79;30.88;100553.62;1693715;83;21785;-69
2021/11/09 11:47:18;;;;;;;1.30;0.50;;;;;;;19.82;30.92;100545.22;1684101;83;21101;-69
2021/11/09 11:49:50;;;;;;;1.55;0.50;;;;;;;19.69;30.88;100544.44;1691371;82;21141;-68
2021/11/09 11:52:32;;;;;;;1.30;0.50;;;;;;;18.35;32.42;100551.54;1688703;82;21022;-70
2021/11/09 11:55:08;;;;;;;1.07;0.57;;;;;;;19.10;31.93;100550.39;1693471;82;20947;-67
2021/11/09 11:57:44;;;;;;;1.43;0.60;;;;;;;19.41;31.51;100549.69;1694093;82;22570;-66
2021/11/09 12:00:43;;;;;;;1.80;0.60;;;;;;;19.41;31.51;100549.69;1696800;84;21074;-67
2021/11/09 12:03:27;;;;;;;1.63;0.53;;;;;;;19.62;31.89;100553.55;1676148;83;21047;-66
2021/11/09 12:05:58;;;;;;;1.40;0.50;;;;;;;19.56;31.48;100555.28;1720956;83;21698;-71
2021/11/09 12:08:45;;;;;;;3.27;0.60;;;;;;;19.58;30.77;100556.35;1717655;83;21354;-66
2021/11/09 12:11:36;;;;;;;1.27;0.67;;;;;;;19.44;30.47;100556.64;1719441;81;21801;-73
2021/11/09 12:14:08;;;;;;;1.53;0.40;;;;;;;19.17;29.80;100559.00;1715876;81;38373;-64
2021/11/09 12:16:54;;;;;;;1.17;0.40;;;;;;;18.93;29.82;100554.75;1716138;81;21520;-65
2021/11/09 12:19:47;;;;;;;0.93;0.50;;;;;;;18.57;30.54;100557.88;1717801;83;21065;-61
2021/11/09 12:22:35;;;;;;;0.87;0.47;;;;;;;18.00;31.44;100576.00;1721449;81;20982;-72
2021/11/09 12:25:02;;;;;;;1.40;0.50;;;;;;;17.68;32.18;100572.72;1715151;81;21099;-64
2021/11/09 12:27:57;;;;;;;1.63;0.40;;;;;;;17.46;32.44;100573.69;1708035;81;21677;-64
2021/11/09 12:30:44;;;;;;;1.53;0.60;;;;;;;17.22;32.82;100577.49;1711958;81;21085;-63
2021/11/09 12:33:16;;;;;;;2.20;0.57;;;;;;;16.95;33.81;100582.22;1716799;81;21733;-62
2021/11/09 12:36:00;;;;;;;1.27;0.47;;;;;;;17.34;33.49;100591.26;1716820;81;22176;-68
2021/11/09 12:38:35;;;;;;;1.47;0.50;;;;;;;17.24;33.65;100591.27;1716012;81;22229;-64
2021/11/09 12:41:17;;;;;;;2.03;0.50;;;;;;;17.07;33.80;100598.11;1717420;81;22040;-73
2021/11/09 12:43:54;;;;;;;1.30;0.50;;;;;;;16.84;33.62;100599.23;1712472;81;21498;-64
2021/11/09 12:46:41;;;;;;;1.33;0.50;;;;;;;16.84;33.62;100599.23;1713980;81;22431;-65
2021/11/09 12:49:17;;;;;;;1.50;0.53;;;;;;;16.80;33.76;100596.75;1687547;83;22776;-66
2021/11/09 12:51:48;;;;;;;1.60;0.67;;;;;;;16.65;33.67;100597.83;1715746;83;21326;-65
2021/11/09 12:54:27;;;;;;;1.40;0.60;;;;;;;16.57;34.08;100603.37;1711325;83;21685;-72
2021/11/09 12:56:59;;;;;;;2.63;1.00;;;;;;;16.57;34.08;100603.37;1715516;81;21677;-66
2021/11/09 12:59:38;;;;;;;2.87;1.10;;;;;;;16.63;33.90;100595.94;1711737;81;21572;-63
2021/11/09 13:10:13;;;;;;;1.83;0.63;;;;;;;16.49;34.54;100612.33;1715797;81;21850;-67
2021/11/09 13:12:38;;;;;;;1.13;0.50;;;;;;;16.57;34.47;100606.52;1718618;81;21364;-65
2021/11/09 13:15:13;;;;;;;1.63;0.53;;;;;;;16.39;35.08;100616.44;1714913;80;21350;-65
2021/11/09 13:17:46;;;;;;;2.03;0.70;;;;;;;16.23;35.53;100619.07;1713335;81;21234;-66
2021/11/09 13:23:06;;;;;;;2.30;0.70;;;;;;;16.12;36.03;100638.95;1715285;81;20926;-71
2021/11/09 13:25:55;;;;;;;3.70;1.50;;;;;;;15.96;36.32;100647.33;1714964;81;21199;-66
2021/11/09 13:28:33;;;;;;;4.80;2.50;;;;;;;15.65;37.10;100646.22;1712123;81;21232;-64
2021/11/09 13:31:09;;;;;;;5.30;2.30;;;;;;;15.67;37.37;100651.26;1712483;81;21780;-68
2021/11/09 13:33:42;;;;;;;5.93;2.57;;;;;;;15.51;37.65;100655.11;1715208;81;21201;-66
2021/11/09 13:36:11;;;;;;;5.07;1.97;;;;;;;15.39;38.13;100658.07;1713640;81;21036;-71
2021/11/09 13:38:41;;;;;;;4.13;1.80;;;;;;;15.19;38.52;100660.70;1714552;81;21108;-73
2021/11/09 13:41:20;;;;;;;3.67;1.70;;;;;;;15.10;38.92;100658.80;1711968;81;21334;-65